sensor_id;sensor_type;location;lat;lon;timestamp;temperature;humidity
52731;DHT22;38624;53.242;6.974;2023-03-24T00:01:51;10.70;99.90
52731;DHT22;38624;53.242;6.974;2023-03-24T00:04:17;10.70;99.90
52731;DHT22;38624;53.242;6.974;2023-03-24T00:06:43;10.70;99.90
52731;DHT22;38624;53.242;6.974;2023-03-24T00:09:09;10.70;99.90
52731;DHT22;38624;53.242;6.974;2023-03-24T00:11:35;10.60;99.90
52731;DHT22;38624;53.242;6.974;2023-03-24T00:14:03;10.60;99.90
52731;DHT22;38624;53.242;6.974;2023-03-24T00:16:29;10.50;99.90
52731;DHT22;38624;53.242;6.974;2023-03-24T00:18:55;10.50;99.90
52731;DHT22;38624;53.242;6.974;2023-03-24T00:21:23;10.50;99.90
52731;DHT22;38624;53.242;6.974;2023-03-24T00:23:50;10.50;99.90
52731;DHT22;38624;53.242;6.974;2023-03-24T00:26:19;10.50;99.90
52731;DHT22;38624;53.242;6.974;2023-03-24T00:28:47;10.50;99.90
52731;DHT22;38624;53.242;6.974;2023-03-24T00:31:14;10.50;99.90
52731;DHT22;38624;53.242;6.974;2023-03-24T00:33:40;10.50;99.90
52731;DHT22;38624;53.242;6.974;2023-03-24T00:36:08;10.50;99.90
52731;DHT22;38624;53.242;6.974;2023-03-24T00:38:38;10.50;99.90
52731;DHT22;38624;53.242;6.974;2023-03-24T00:41:06;10.50;99.90
52731;DHT22;38624;53.242;6.974;2023-03-24T00:43:33;10.50;99.90
52731;DHT22;38624;53.242;6.974;2023-03-24T00:46:06;10.50;99.90
52731;DHT22;38624;53.242;6.974;2023-03-24T00:48:33;10.50;99.90
52731;DHT22;38624;53.242;6.974;2023-03-24T00:51:01;10.50;99.90
52731;DHT22;38624;53.242;6.974;2023-03-24T00:53:27;10.50;99.90
52731;DHT22;38624;53.242;6.974;2023-03-24T00:55:57;10.50;99.90
52731;DHT22;38624;53.242;6.974;2023-03-24T00:58:24;10.50;99.90
52731;DHT22;38624;53.242;6.974;2023-03-24T01:00:52;10.50;99.90
52731;DHT22;38624;53.242;6.974;2023-03-24T01:03:19;10.40;99.90
52731;DHT22;38624;53.242;6.974;2023-03-24T01:05:47;10.30;99.90
52731;DHT22;38624;53.242;6.974;2023-03-24T01:08:14;10.30;99.90
52731;DHT22;38624;53.242;6.974;2023-03-24T01:10:40;10.30;99.90
52731;DHT22;38624;53.242;6.974;2023-03-24T01:13:16;10.30;99.90
52731;DHT22;38624;53.242;6.974;2023-03-24T01:15:43;10.20;99.90
52731;DHT22;38624;53.242;6.974;2023-03-24T01:18:10;10.20;99.90
52731;DHT22;38624;53.242;6.974;2023-03-24T01:20:37;10.30;99.90
52731;DHT22;38624;53.242;6.974;2023-03-24T01:23:05;10.20;99.90
52731;DHT22;38624;53.242;6.974;2023-03-24T01:25:33;10.20;99.90
52731;DHT22;38624;53.242;6.974;2023-03-24T01:28:01;10.20;99.90
52731;DHT22;38624;53.242;6.974;2023-03-24T01:30:28;10.20;99.90
52731;DHT22;38624;53.242;6.974;2023-03-24T01:32:54;10.20;99.90
52731;DHT22;38624;53.242;6.974;2023-03-24T01:35:22;10.20;99.90
52731;DHT22;38624;53.242;6.974;2023-03-24T01:37:48;10.20;99.90
52731;DHT22;38624;53.242;6.974;2023-03-24T01:40:19;10.20;99.90
52731;DHT22;38624;53.242;6.974;2023-03-24T01:42:45;10.20;99.90
52731;DHT22;38624;53.242;6.974;2023-03-24T01:48:22;10.20;99.90
52731;DHT22;38624;53.242;6.974;2023-03-24T01:50:53;10.20;99.90
52731;DHT22;38624;53.242;6.974;2023-03-24T01:53:21;10.20;99.90
52731;DHT22;38624;53.242;6.974;2023-03-24T01:55:47;10.20;99.90
52731;DHT22;38624;53.242;6.974;2023-03-24T01:58:13;10.20;99.90
52731;DHT22;38624;53.242;6.974;2023-03-24T02:00:39;10.20;99.90
52731;DHT22;38624;53.242;6.974;2023-03-24T02:03:13;10.20;99.90
52731;DHT22;38624;53.242;6.974;2023-03-24T02:05:43;10.20;99.90
52731;DHT22;38624;53.242;6.974;2023-03-24T02:10:43;10.20;99.90
52731;DHT22;38624;53.242;6.974;2023-03-24T02:13:09;10.20;99.90
52731;DHT22;38624;53.242;6.974;2023-03-24T02:15:44;10.30;99.90
52731;DHT22;38624;53.242;6.974;2023-03-24T02:18:46;10.30;99.90
52731;DHT22;38624;53.242;6.974;2023-03-24T02:30:21;10.30;99.90
52731;DHT22;38624;53.242;6.974;2023-03-24T02:36:23;10.40;99.90
52731;DHT22;38624;53.242;6.974;2023-03-24T02:44:07;10.40;99.90
52731;DHT22;38624;53.242;6.974;2023-03-24T02:46:44;10.40;99.90
52731;DHT22;38624;53.242;6.974;2023-03-24T02:49:37;10.40;99.90
52731;DHT22;38624;53.242;6.974;2023-03-24T02:54:46;10.40;99.90
52731;DHT22;38624;53.242;6.974;2023-03-24T02:57:31;10.50;99.90
52731;DHT22;38624;53.242;6.974;2023-03-24T03:00:20;10.50;99.90
52731;DHT22;38624;53.242;6.974;2023-03-24T03:02:48;10.50;99.90
52731;DHT22;38624;53.242;6.974;2023-03-24T03:05:30;10.50;99.90
52731;DHT22;38624;53.242;6.974;2023-03-24T03:08:00;10.50;99.90
52731;DHT22;38624;53.242;6.974;2023-03-24T03:10:36;10.50;99.90
52731;DHT22;38624;53.242;6.974;2023-03-24T03:13:07;10.50;99.90
52731;DHT22;38624;53.242;6.974;2023-03-24T03:15:38;10.50;99.90
52731;DHT22;38624;53.242;6.974;2023-03-24T03:18:28;10.50;99.90
52731;DHT22;38624;53.242;6.974;2023-03-24T03:21:01;10.60;99.90
52731;DHT22;38624;53.242;6.974;2023-03-24T03:23:37;10.60;99.90
52731;DHT22;38624;53.242;6.974;2023-03-24T03:26:07;10.60;99.90
52731;DHT22;38624;53.242;6.974;2023-03-24T03:28:37;10.60;99.90
52731;DHT22;38624;53.242;6.974;2023-03-24T03:31:11;10.60;99.90
52731;DHT22;38624;53.242;6.974;2023-03-24T03:33:48;10.60;99.90
52731;DHT22;38624;53.242;6.974;2023-03-24T03:36:21;10.60;99.90
52731;DHT22;38624;53.242;6.974;2023-03-24T03:39:07;10.60;99.90
52731;DHT22;38624;53.242;6.974;2023-03-24T03:41:35;10.60;99.90
52731;DHT22;38624;53.242;6.974;2023-03-24T03:44:01;10.60;99.90
52731;DHT22;38624;53.242;6.974;2023-03-24T03:46:27;10.60;99.90
52731;DHT22;38624;53.242;6.974;2023-03-24T03:48:53;10.60;99.90
52731;DHT22;38624;53.242;6.974;2023-03-24T03:51:19;10.70;99.90
52731;DHT22;38624;53.242;6.974;2023-03-24T03:53:51;11.20;99.90
52731;DHT22;38624;53.242;6.974;2023-03-24T03:56:22;10.70;99.90
52731;DHT22;38624;53.242;6.974;2023-03-24T03:58:48;10.70;99.90
52731;DHT22;38624;53.242;6.974;2023-03-24T04:01:24;10.70;99.90
52731;DHT22;38624;53.242;6.974;2023-03-24T04:06:32;10.50;99.90
52731;DHT22;38624;53.242;6.974;2023-03-24T04:17:49;10.00;99.90
52731;DHT22;38624;53.242;6.974;2023-03-24T04:20:13;9.90;99.90
52731;DHT22;38624;53.242;6.974;2023-03-24T04:28:29;9.50;99.90
52731;DHT22;38624;53.242;6.974;2023-03-24T04:31:48;9.50;99.90
52731;DHT22;38624;53.242;6.974;2023-03-24T04:34:01;9.50;99.90
52731;DHT22;38624;53.242;6.974;2023-03-24T04:36:35;9.40;99.90
52731;DHT22;38624;53.242;6.974;2023-03-24T04:39:17;9.40;99.90
52731;DHT22;38624;53.242;6.974;2023-03-24T04:41:45;9.40;99.90
52731;DHT22;38624;53.242;6.974;2023-03-24T04:44:13;9.30;99.90
52731;DHT22;38624;53.242;6.974;2023-03-24T04:46:42;9.30;99.90
52731;DHT22;38624;53.242;6.974;2023-03-24T04:49:09;9.30;99.90
52731;DHT22;38624;53.242;6.974;2023-03-24T04:51:34;9.20;99.90
52731;DHT22;38624;53.242;6.974;2023-03-24T04:54:00;9.10;99.90
52731;DHT22;38624;53.242;6.974;2023-03-24T04:56:37;9.00;99.90
52731;DHT22;38624;53.242;6.974;2023-03-24T04:59:04;9.00;99.90
52731;DHT22;38624;53.242;6.974;2023-03-24T05:01:31;8.90;99.90
52731;DHT22;38624;53.242;6.974;2023-03-24T05:04:02;8.80;99.90
52731;DHT22;38624;53.242;6.974;2023-03-24T05:06:28;8.80;99.90
52731;DHT22;38624;53.242;6.974;2023-03-24T05:08:55;8.70;99.90
52731;DHT22;38624;53.242;6.974;2023-03-24T05:11:23;8.70;99.90
52731;DHT22;38624;53.242;6.974;2023-03-24T05:13:49;8.70;99.90
52731;DHT22;38624;53.242;6.974;2023-03-24T05:16:15;8.70;99.90
52731;DHT22;38624;53.242;6.974;2023-03-24T05:18:41;8.70;99.90
52731;DHT22;38624;53.242;6.974;2023-03-24T05:21:07;8.70;99.90
52731;DHT22;38624;53.242;6.974;2023-03-24T05:23:32;8.60;99.90
52731;DHT22;38624;53.242;6.974;2023-03-24T05:25:58;8.60;99.90
52731;DHT22;38624;53.242;6.974;2023-03-24T05:28:24;8.60;99.90
52731;DHT22;38624;53.242;6.974;2023-03-24T05:30:49;8.50;99.90
52731;DHT22;38624;53.242;6.974;2023-03-24T05:33:15;8.50;99.90
52731;DHT22;38624;53.242;6.974;2023-03-24T05:35:41;8.40;99.90
52731;DHT22;38624;53.242;6.974;2023-03-24T05:38:07;8.40;99.90
52731;DHT22;38624;53.242;6.974;2023-03-24T05:40:33;8.60;99.90
52731;DHT22;38624;53.242;6.974;2023-03-24T05:42:58;8.50;99.90
52731;DHT22;38624;53.242;6.974;2023-03-24T05:45:24;8.30;99.90
52731;DHT22;38624;53.242;6.974;2023-03-24T05:47:50;8.30;99.90
52731;DHT22;38624;53.242;6.974;2023-03-24T05:50:16;8.30;99.90
52731;DHT22;38624;53.242;6.974;2023-03-24T05:52:42;8.30;99.90
52731;DHT22;38624;53.242;6.974;2023-03-24T05:55:08;8.20;99.90
52731;DHT22;38624;53.242;6.974;2023-03-24T05:57:34;8.30;99.90
52731;DHT22;38624;53.242;6.974;2023-03-24T06:00:02;8.30;99.90
52731;DHT22;38624;53.242;6.974;2023-03-24T06:02:31;8.30;99.90
52731;DHT22;38624;53.242;6.974;2023-03-24T06:04:57;8.40;99.90
52731;DHT22;38624;53.242;6.974;2023-03-24T06:07:23;8.40;99.90
52731;DHT22;38624;53.242;6.974;2023-03-24T06:09:51;8.50;99.90
52731;DHT22;38624;53.242;6.974;2023-03-24T06:12:17;8.50;99.90
52731;DHT22;38624;53.242;6.974;2023-03-24T06:14:43;8.60;99.90
52731;DHT22;38624;53.242;6.974;2023-03-24T06:17:10;8.60;99.90
52731;DHT22;38624;53.242;6.974;2023-03-24T06:19:40;8.60;99.90
52731;DHT22;38624;53.242;6.974;2023-03-24T06:22:13;8.70;99.90
52731;DHT22;38624;53.242;6.974;2023-03-24T06:24:38;8.70;99.90
52731;DHT22;38624;53.242;6.974;2023-03-24T06:27:04;8.70;99.90
52731;DHT22;38624;53.242;6.974;2023-03-24T06:29:34;8.90;99.90
52731;DHT22;38624;53.242;6.974;2023-03-24T06:32:01;8.70;99.90
52731;DHT22;38624;53.242;6.974;2023-03-24T06:34:26;8.70;99.90
52731;DHT22;38624;53.242;6.974;2023-03-24T06:36:54;8.70;99.90
52731;DHT22;38624;53.242;6.974;2023-03-24T06:39:20;8.70;99.90
52731;DHT22;38624;53.242;6.974;2023-03-24T06:41:46;8.70;99.90
52731;DHT22;38624;53.242;6.974;2023-03-24T06:44:12;8.70;99.90
52731;DHT22;38624;53.242;6.974;2023-03-24T06:46:38;8.70;99.90
52731;DHT22;38624;53.242;6.974;2023-03-24T06:49:05;8.80;99.90
52731;DHT22;38624;53.242;6.974;2023-03-24T06:51:30;8.80;99.90
52731;DHT22;38624;53.242;6.974;2023-03-24T06:53:56;8.80;99.90
52731;DHT22;38624;53.242;6.974;2023-03-24T06:56:22;8.90;99.90
52731;DHT22;38624;53.242;6.974;2023-03-24T06:58:48;8.80;99.90
52731;DHT22;38624;53.242;6.974;2023-03-24T07:01:14;8.80;99.90
52731;DHT22;38624;53.242;6.974;2023-03-24T07:03:40;8.80;99.90
52731;DHT22;38624;53.242;6.974;2023-03-24T07:06:07;8.90;99.90
52731;DHT22;38624;53.242;6.974;2023-03-24T07:08:34;8.90;99.90
52731;DHT22;38624;53.242;6.974;2023-03-24T07:11:00;8.90;99.90
52731;DHT22;38624;53.242;6.974;2023-03-24T07:13:27;8.90;99.90
52731;DHT22;38624;53.242;6.974;2023-03-24T07:15:52;8.90;99.90
52731;DHT22;38624;53.242;6.974;2023-03-24T07:18:18;8.90;99.90
52731;DHT22;38624;53.242;6.974;2023-03-24T07:20:44;9.00;99.90
52731;DHT22;38624;53.242;6.974;2023-03-24T07:23:12;9.00;99.90
52731;DHT22;38624;53.242;6.974;2023-03-24T07:25:41;9.10;99.90
52731;DHT22;38624;53.242;6.974;2023-03-24T07:28:07;9.00;99.90
52731;DHT22;38624;53.242;6.974;2023-03-24T07:30:34;9.10;99.90
52731;DHT22;38624;53.242;6.974;2023-03-24T07:33:01;9.10;99.90
52731;DHT22;38624;53.242;6.974;2023-03-24T07:35:27;9.10;99.90
52731;DHT22;38624;53.242;6.974;2023-03-24T07:37:59;9.20;99.90
52731;DHT22;38624;53.242;6.974;2023-03-24T07:40:26;9.30;99.90
52731;DHT22;38624;53.242;6.974;2023-03-24T07:42:52;9.30;99.90
52731;DHT22;38624;53.242;6.974;2023-03-24T07:45:18;9.40;99.90
52731;DHT22;38624;53.242;6.974;2023-03-24T07:47:45;9.50;99.90
52731;DHT22;38624;53.242;6.974;2023-03-24T07:50:11;9.60;99.90
52731;DHT22;38624;53.242;6.974;2023-03-24T07:52:39;9.60;99.90
52731;DHT22;38624;53.242;6.974;2023-03-24T07:55:10;9.60;99.90
52731;DHT22;38624;53.242;6.974;2023-03-24T07:57:47;9.70;99.90
52731;DHT22;38624;53.242;6.974;2023-03-24T08:00:14;9.70;99.90
52731;DHT22;38624;53.242;6.974;2023-03-24T08:02:43;9.70;99.90
52731;DHT22;38624;53.242;6.974;2023-03-24T08:05:09;9.70;99.90
52731;DHT22;38624;53.242;6.974;2023-03-24T08:07:41;9.60;99.90
52731;DHT22;38624;53.242;6.974;2023-03-24T08:10:13;9.60;99.90
52731;DHT22;38624;53.242;6.974;2023-03-24T08:12:42;9.60;99.90
52731;DHT22;38624;53.242;6.974;2023-03-24T08:15:08;9.60;99.90
52731;DHT22;38624;53.242;6.974;2023-03-24T08:17:35;9.70;99.90
52731;DHT22;38624;53.242;6.974;2023-03-24T08:20:02;9.70;99.90
52731;DHT22;38624;53.242;6.974;2023-03-24T08:22:42;9.80;99.90
52731;DHT22;38624;53.242;6.974;2023-03-24T08:25:10;9.80;99.90
52731;DHT22;38624;53.242;6.974;2023-03-24T08:27:38;9.90;99.90
52731;DHT22;38624;53.242;6.974;2023-03-24T08:30:06;9.90;99.90
52731;DHT22;38624;53.242;6.974;2023-03-24T08:32:33;10.00;99.90
52731;DHT22;38624;53.242;6.974;2023-03-24T08:34:59;10.10;99.90
52731;DHT22;38624;53.242;6.974;2023-03-24T08:37:25;10.20;99.90
52731;DHT22;38624;53.242;6.974;2023-03-24T08:39:51;10.20;99.90
52731;DHT22;38624;53.242;6.974;2023-03-24T08:42:16;10.30;99.90
52731;DHT22;38624;53.242;6.974;2023-03-24T08:44:42;10.40;99.90
52731;DHT22;38624;53.242;6.974;2023-03-24T08:47:09;10.40;99.90
52731;DHT22;38624;53.242;6.974;2023-03-24T08:49:35;10.50;99.90
52731;DHT22;38624;53.242;6.974;2023-03-24T08:52:01;10.70;99.90
52731;DHT22;38624;53.242;6.974;2023-03-24T08:54:27;10.70;99.90
52731;DHT22;38624;53.242;6.974;2023-03-24T08:56:52;10.70;99.90
52731;DHT22;38624;53.242;6.974;2023-03-24T08:59:18;10.50;99.90
52731;DHT22;38624;53.242;6.974;2023-03-24T09:01:43;10.20;99.90
52731;DHT22;38624;53.242;6.974;2023-03-24T09:04:10;10.20;99.90
52731;DHT22;38624;53.242;6.974;2023-03-24T09:06:35;10.10;99.90
52731;DHT22;38624;53.242;6.974;2023-03-24T09:09:01;10.00;99.90
52731;DHT22;38624;53.242;6.974;2023-03-24T09:11:27;10.00;99.90
52731;DHT22;38624;53.242;6.974;2023-03-24T09:13:52;9.90;99.90
52731;DHT22;38624;53.242;6.974;2023-03-24T09:16:18;10.00;99.90
52731;DHT22;38624;53.242;6.974;2023-03-24T09:18:44;10.10;99.90
52731;DHT22;38624;53.242;6.974;2023-03-24T09:21:10;10.30;99.90
52731;DHT22;38624;53.242;6.974;2023-03-24T09:23:37;10.30;99.90
52731;DHT22;38624;53.242;6.974;2023-03-24T09:26:03;10.30;99.90
52731;DHT22;38624;53.242;6.974;2023-03-24T09:28:29;10.30;99.90
52731;DHT22;38624;53.242;6.974;2023-03-24T09:31:01;10.30;99.90
52731;DHT22;38624;53.242;6.974;2023-03-24T09:33:27;10.20;99.90
52731;DHT22;38624;53.242;6.974;2023-03-24T09:35:59;10.30;99.90
52731;DHT22;38624;53.242;6.974;2023-03-24T09:38:26;10.20;99.90
52731;DHT22;38624;53.242;6.974;2023-03-24T09:40:57;10.40;99.90
52731;DHT22;38624;53.242;6.974;2023-03-24T09:45:59;11.10;99.90
52731;DHT22;38624;53.242;6.974;2023-03-24T09:48:37;11.30;99.90
52731;DHT22;38624;53.242;6.974;2023-03-24T09:51:25;11.50;99.90
52731;DHT22;38624;53.242;6.974;2023-03-24T09:56:22;11.90;99.90
52731;DHT22;38624;53.242;6.974;2023-03-24T09:59:06;11.80;99.90
52731;DHT22;38624;53.242;6.974;2023-03-24T10:01:33;11.70;99.90
52731;DHT22;38624;53.242;6.974;2023-03-24T10:03:59;11.90;99.90
52731;DHT22;38624;53.242;6.974;2023-03-24T10:06:32;12.00;99.90
52731;DHT22;38624;53.242;6.974;2023-03-24T10:17:05;12.30;99.90
52731;DHT22;38624;53.242;6.974;2023-03-24T10:19:40;11.90;99.90
52731;DHT22;38624;53.242;6.974;2023-03-24T10:25:17;11.40;99.90
52731;DHT22;38624;53.242;6.974;2023-03-24T10:27:56;11.30;99.90
52731;DHT22;38624;53.242;6.974;2023-03-24T10:30:27;11.10;99.90
52731;DHT22;38624;53.242;6.974;2023-03-24T10:32:53;11.00;99.90
52731;DHT22;38624;53.242;6.974;2023-03-24T10:35:27;10.90;99.90
52731;DHT22;38624;53.242;6.974;2023-03-24T10:37:57;11.00;99.90
52731;DHT22;38624;53.242;6.974;2023-03-24T10:40:32;11.00;99.90
52731;DHT22;38624;53.242;6.974;2023-03-24T10:43:00;10.90;99.90
52731;DHT22;38624;53.242;6.974;2023-03-24T10:45:35;10.90;99.90
52731;DHT22;38624;53.242;6.974;2023-03-24T10:48:03;11.10;99.90
52731;DHT22;38624;53.242;6.974;2023-03-24T10:50:31;11.10;99.90
52731;DHT22;38624;53.242;6.974;2023-03-24T10:52:57;12.70;99.90
52731;DHT22;38624;53.242;6.974;2023-03-24T10:55:29;13.00;99.90
52731;DHT22;38624;53.242;6.974;2023-03-24T10:57:58;12.40;99.90
52731;DHT22;38624;53.242;6.974;2023-03-24T11:00:26;12.10;99.90
52731;DHT22;38624;53.242;6.974;2023-03-24T11:03:05;12.80;99.90
52731;DHT22;38624;53.242;6.974;2023-03-24T11:05:32;12.20;99.90
52731;DHT22;38624;53.242;6.974;2023-03-24T11:10:36;14.50;99.90
52731;DHT22;38624;53.242;6.974;2023-03-24T11:13:03;13.40;99.90
52731;DHT22;38624;53.242;6.974;2023-03-24T11:15:34;14.70;99.90
52731;DHT22;38624;53.242;6.974;2023-03-24T11:20:38;13.80;99.90
52731;DHT22;38624;53.242;6.974;2023-03-24T11:23:28;13.40;99.90
52731;DHT22;38624;53.242;6.974;2023-03-24T11:28:44;13.10;99.90
52731;DHT22;38624;53.242;6.974;2023-03-24T11:31:12;13.20;99.90
52731;DHT22;38624;53.242;6.974;2023-03-24T11:34:11;14.00;99.90
52731;DHT22;38624;53.242;6.974;2023-03-24T11:36:48;15.60;99.90
52731;DHT22;38624;53.242;6.974;2023-03-24T11:44:50;17.80;99.90
52731;DHT22;38624;53.242;6.974;2023-03-24T11:47:32;17.40;99.90
52731;DHT22;38624;53.242;6.974;2023-03-24T11:55:16;17.20;99.90
52731;DHT22;38624;53.242;6.974;2023-03-24T11:58:16;18.60;99.90
52731;DHT22;38624;53.242;6.974;2023-03-24T12:00:52;20.40;99.90
52731;DHT22;38624;53.242;6.974;2023-03-24T12:06:01;21.60;99.90
52731;DHT22;38624;53.242;6.974;2023-03-24T12:13:54;19.90;99.90
52731;DHT22;38624;53.242;6.974;2023-03-24T12:16:47;19.90;97.80
52731;DHT22;38624;53.242;6.974;2023-03-24T12:22:41;17.60;99.80
52731;DHT22;38624;53.242;6.974;2023-03-24T12:25:22;18.20;99.90
52731;DHT22;38624;53.242;6.974;2023-03-24T12:30:47;16.80;99.90
52731;DHT22;38624;53.242;6.974;2023-03-24T12:39:25;16.80;99.90
52731;DHT22;38624;53.242;6.974;2023-03-24T12:42:12;16.60;99.90
52731;DHT22;38624;53.242;6.974;2023-03-24T12:56:04;19.40;99.90
52731;DHT22;38624;53.242;6.974;2023-03-24T13:06:57;22.00;97.00
52731;DHT22;38624;53.242;6.974;2023-03-24T13:12:20;21.00;97.90
52731;DHT22;38624;53.242;6.974;2023-03-24T13:17:44;18.60;99.90
52731;DHT22;38624;53.242;6.974;2023-03-24T13:20:15;17.40;99.90
52731;DHT22;38624;53.242;6.974;2023-03-24T13:22:44;17.70;99.90
52731;DHT22;38624;53.242;6.974;2023-03-24T13:25:40;18.60;99.90
52731;DHT22;38624;53.242;6.974;2023-03-24T13:28:16;19.80;98.30
52731;DHT22;38624;53.242;6.974;2023-03-24T13:30:45;20.30;98.10
52731;DHT22;38624;53.242;6.974;2023-03-24T13:33:24;21.30;96.60
52731;DHT22;38624;53.242;6.974;2023-03-24T13:36:37;21.80;96.00
52731;DHT22;38624;53.242;6.974;2023-03-24T13:39:12;22.10;95.60
52731;DHT22;38624;53.242;6.974;2023-03-24T13:41:39;21.10;92.20
52731;DHT22;38624;53.242;6.974;2023-03-24T13:44:08;21.40;91.90
52731;DHT22;38624;53.242;6.974;2023-03-24T13:46:40;22.50;93.00
52731;DHT22;38624;53.242;6.974;2023-03-24T13:49:10;22.60;91.90
52731;DHT22;38624;53.242;6.974;2023-03-24T13:51:42;21.70;88.90
52731;DHT22;38624;53.242;6.974;2023-03-24T13:54:19;21.60;91.00
52731;DHT22;38624;53.242;6.974;2023-03-24T13:56:59;20.80;90.50
52731;DHT22;38624;53.242;6.974;2023-03-24T13:59:38;20.60;90.80
52731;DHT22;38624;53.242;6.974;2023-03-24T14:02:16;18.90;90.50
52731;DHT22;38624;53.242;6.974;2023-03-24T14:15:30;18.80;94.90
52731;DHT22;38624;53.242;6.974;2023-03-24T14:25:56;18.20;96.40
52731;DHT22;38624;53.242;6.974;2023-03-24T14:28:45;18.50;96.50
52731;DHT22;38624;53.242;6.974;2023-03-24T14:33:55;18.60;95.80
52731;DHT22;38624;53.242;6.974;2023-03-24T14:36:38;18.30;96.60
52731;DHT22;38624;53.242;6.974;2023-03-24T14:39:34;17.70;95.80
52731;DHT22;38624;53.242;6.974;2023-03-24T14:42:08;17.90;97.80
52731;DHT22;38624;53.242;6.974;2023-03-24T14:47:25;17.60;97.40
52731;DHT22;38624;53.242;6.974;2023-03-24T14:49:56;16.80;99.80
52731;DHT22;38624;53.242;6.974;2023-03-24T14:52:39;16.40;99.20
52731;DHT22;38624;53.242;6.974;2023-03-24T14:55:12;16.70;99.30
52731;DHT22;38624;53.242;6.974;2023-03-24T14:57:42;16.20;99.90
52731;DHT22;38624;53.242;6.974;2023-03-24T15:00:31;15.70;99.20
52731;DHT22;38624;53.242;6.974;2023-03-24T15:05:52;15.20;99.90
52731;DHT22;38624;53.242;6.974;2023-03-24T15:08:22;15.40;99.90
52731;DHT22;38624;53.242;6.974;2023-03-24T15:11:02;14.90;99.90
52731;DHT22;38624;53.242;6.974;2023-03-24T15:13:39;15.40;99.90
52731;DHT22;38624;53.242;6.974;2023-03-24T15:18:46;15.00;99.90
52731;DHT22;38624;53.242;6.974;2023-03-24T15:21:22;15.10;99.90
52731;DHT22;38624;53.242;6.974;2023-03-24T15:23:48;14.90;99.90
52731;DHT22;38624;53.242;6.974;2023-03-24T15:26:14;14.60;99.90
52731;DHT22;38624;53.242;6.974;2023-03-24T15:28:41;15.00;99.90
52731;DHT22;38624;53.242;6.974;2023-03-24T15:31:07;16.00;99.90
52731;DHT22;38624;53.242;6.974;2023-03-24T15:33:43;17.10;99.90
52731;DHT22;38624;53.242;6.974;2023-03-24T15:36:20;17.80;99.90
52731;DHT22;38624;53.242;6.974;2023-03-24T15:38:48;18.20;99.90
52731;DHT22;38624;53.242;6.974;2023-03-24T15:41:21;18.20;99.90
52731;DHT22;38624;53.242;6.974;2023-03-24T15:43:52;18.60;99.90
52731;DHT22;38624;53.242;6.974;2023-03-24T15:46:25;18.70;99.90
52731;DHT22;38624;53.242;6.974;2023-03-24T15:48:52;19.20;99.90
52731;DHT22;38624;53.242;6.974;2023-03-24T15:51:18;19.40;99.30
52731;DHT22;38624;53.242;6.974;2023-03-24T15:53:54;19.10;98.50
52731;DHT22;38624;53.242;6.974;2023-03-24T15:56:28;19.30;98.40
52731;DHT22;38624;53.242;6.974;2023-03-24T16:01:31;18.60;99.90
52731;DHT22;38624;53.242;6.974;2023-03-24T16:04:18;18.30;98.10
52731;DHT22;38624;53.242;6.974;2023-03-24T16:06:50;17.90;99.90
52731;DHT22;38624;53.242;6.974;2023-03-24T16:09:18;17.70;99.90
52731;DHT22;38624;53.242;6.974;2023-03-24T16:11:52;17.50;99.90
52731;DHT22;38624;53.242;6.974;2023-03-24T16:14:29;17.20;99.90
52731;DHT22;38624;53.242;6.974;2023-03-24T16:16:59;16.60;99.90
52731;DHT22;38624;53.242;6.974;2023-03-24T16:19:25;16.30;99.90
52731;DHT22;38624;53.242;6.974;2023-03-24T16:21:51;16.20;99.90
52731;DHT22;38624;53.242;6.974;2023-03-24T16:24:19;15.80;99.90
52731;DHT22;38624;53.242;6.974;2023-03-24T16:26:45;15.60;99.90
52731;DHT22;38624;53.242;6.974;2023-03-24T16:29:20;15.40;99.90
52731;DHT22;38624;53.242;6.974;2023-03-24T16:31:48;14.90;99.90
52731;DHT22;38624;53.242;6.974;2023-03-24T16:34:20;14.80;99.90
52731;DHT22;38624;53.242;6.974;2023-03-24T16:36:47;14.80;99.90
52731;DHT22;38624;53.242;6.974;2023-03-24T16:39:19;14.90;99.90
52731;DHT22;38624;53.242;6.974;2023-03-24T16:41:46;14.80;99.90
52731;DHT22;38624;53.242;6.974;2023-03-24T16:44:12;14.50;99.90
52731;DHT22;38624;53.242;6.974;2023-03-24T16:46:38;14.40;99.90
52731;DHT22;38624;53.242;6.974;2023-03-24T16:49:07;14.30;99.90
52731;DHT22;38624;53.242;6.974;2023-03-24T16:51:33;14.20;99.90
52731;DHT22;38624;53.242;6.974;2023-03-24T16:53:59;14.10;99.90
52731;DHT22;38624;53.242;6.974;2023-03-24T16:56:25;13.90;99.90
52731;DHT22;38624;53.242;6.974;2023-03-24T16:58:51;13.70;99.90
52731;DHT22;38624;53.242;6.974;2023-03-24T17:06:37;13.00;99.90
52731;DHT22;38624;53.242;6.974;2023-03-24T17:09:04;12.90;99.90
52731;DHT22;38624;53.242;6.974;2023-03-24T17:11:38;12.90;99.90
52731;DHT22;38624;53.242;6.974;2023-03-24T17:14:04;13.00;99.90
52731;DHT22;38624;53.242;6.974;2023-03-24T17:16:34;12.90;99.90
52731;DHT22;38624;53.242;6.974;2023-03-24T17:19:04;12.70;99.90
52731;DHT22;38624;53.242;6.974;2023-03-24T17:21:32;12.50;99.90
52731;DHT22;38624;53.242;6.974;2023-03-24T17:23:59;12.40;99.90
52731;DHT22;38624;53.242;6.974;2023-03-24T17:26:25;12.30;99.90
52731;DHT22;38624;53.242;6.974;2023-03-24T17:28:51;12.20;99.90
52731;DHT22;38624;53.242;6.974;2023-03-24T17:31:16;12.20;99.90
52731;DHT22;38624;53.242;6.974;2023-03-24T17:33:42;12.10;99.90
52731;DHT22;38624;53.242;6.974;2023-03-24T17:36:15;12.00;99.90
52731;DHT22;38624;53.242;6.974;2023-03-24T17:38:42;11.90;99.90
52731;DHT22;38624;53.242;6.974;2023-03-24T17:41:08;11.70;99.90
52731;DHT22;38624;53.242;6.974;2023-03-24T17:43:34;11.60;99.90
52731;DHT22;38624;53.242;6.974;2023-03-24T17:46:01;11.50;99.90
52731;DHT22;38624;53.242;6.974;2023-03-24T17:48:27;11.50;99.90
52731;DHT22;38624;53.242;6.974;2023-03-24T17:50:54;11.40;99.90
52731;DHT22;38624;53.242;6.974;2023-03-24T17:53:22;11.30;99.90
52731;DHT22;38624;53.242;6.974;2023-03-24T17:56:01;11.20;99.90
52731;DHT22;38624;53.242;6.974;2023-03-24T17:58:33;11.20;99.90
52731;DHT22;38624;53.242;6.974;2023-03-24T18:01:00;11.10;99.90
52731;DHT22;38624;53.242;6.974;2023-03-24T18:03:27;11.00;99.90
52731;DHT22;38624;53.242;6.974;2023-03-24T18:05:55;11.00;99.90
52731;DHT22;38624;53.242;6.974;2023-03-24T18:08:21;10.90;99.90
52731;DHT22;38624;53.242;6.974;2023-03-24T18:10:46;10.90;99.90
52731;DHT22;38624;53.242;6.974;2023-03-24T18:13:12;10.80;99.90
52731;DHT22;38624;53.242;6.974;2023-03-24T18:15:40;10.80;99.90
52731;DHT22;38624;53.242;6.974;2023-03-24T18:18:07;10.70;99.90
52731;DHT22;38624;53.242;6.974;2023-03-24T18:20:32;10.70;99.90
52731;DHT22;38624;53.242;6.974;2023-03-24T18:22:58;10.60;99.90
52731;DHT22;38624;53.242;6.974;2023-03-24T18:25:24;10.60;99.90
52731;DHT22;38624;53.242;6.974;2023-03-24T18:27:49;10.50;99.90
52731;DHT22;38624;53.242;6.974;2023-03-24T18:30:15;10.60;99.90
52731;DHT22;38624;53.242;6.974;2023-03-24T18:32:42;10.60;99.90
52731;DHT22;38624;53.242;6.974;2023-03-24T18:35:10;10.50;99.90